SBCR/CMG METAR and TAF weather

Enter ICAO airport designator
Station Type Date Time Source
SBCR METAR 2020/12/01 21:00 UTC NOAA

SBCR 012100Z 24006KT 9999 FEW040 FEW045TCU 35/23 Q1006


Station Type Date Time Source
SBCR Decoded METAR 2020/12/01 21:00 UTC NOAA

Corumba, Brazil (SBCR) 19-05S 057-30W
Dec 01, 2020 - 04:00 PM EST / 2020.12.01 2100 UTC
Wind: from the WSW (240 degrees) at 7 MPH (6 KT):0
Visibility: greater than 7 mile(s):0
Sky conditions: mostly clear
Weather: Towering cumulus clouds observed
Temperature: 95 F (35 C)
Heat index: 104.5 F (40.3 C):1
Dew Point: 73 F (23 C)
Relative Humidity: 49%
Pressure (altimeter): 29.71 in. Hg (1006 hPa)
ob: SBCR 012100Z 24006KT 9999 FEW040 FEW045TCU 35/23 Q1006
cycle: 21

Station Type Date Time Source
SBCR TAF 2020/12/01 18:36 UTC NOAA

TAF TAF SBCR 011615Z 0118/0218 30007KT 9999 SCT040 FEW045TCU TN26/0209Z TX37/0217Z PROB40 0118/0122 7000 TSRA SCT030 FEW045CB
BECMG 0123/0201 05005KT FEW040
BECMG 0214/0216 33007KT SCT035 FEW045TCU PROB40 0216/0218 7000 TSRA SCT030 FEW040CB
RMK PGG

Example: see airport list